Time;durP1;ratioP1;P1;durP2;ratioP2;P2;SDS_P1;SDS_P2;PMS_P1;PMS_P2;Temp;Humidity;BMP_temperature;BMP_pressure;BME280_temperature;BME280_humidity;BME280_pressure;Samples;Min_cycle;Max_cycle;Signal;HPM_P1;HPM_P2
2022/12/11 00:00:49;;;;;;;41.13;22.40;;;4.30;99.90;;;;;;4975540;28;20179;-78
2022/12/11 00:03:18;;;;;;;33.57;20.70;;;4.30;99.90;;;;;;4993291;28;20183;-78
2022/12/11 00:05:44;;;;;;;39.45;19.13;;;4.30;99.90;;;;;;4976083;28;20182;-78
2022/12/11 00:08:10;;;;;;;31.33;18.00;;;4.30;99.90;;;;;;4976015;28;20198;-78
2022/12/11 00:10:37;;;;;;;31.75;16.98;;;4.30;99.90;;;;;;4959437;28;20238;-78
2022/12/11 00:13:03;;;;;;;32.65;18.58;;;4.30;99.90;;;;;;4959517;28;20686;-78
2022/12/11 00:15:29;;;;;;;33.50;17.97;;;4.30;99.90;;;;;;4977518;28;20179;-78
2022/12/11 00:17:54;;;;;;;35.27;19.60;;;4.30;99.90;;;;;;4993131;28;20585;-78
2022/12/11 00:20:20;;;;;;;33.57;21.50;;;4.30;99.90;;;;;;4975545;28;20218;-78
2022/12/11 00:22:46;;;;;;;35.33;19.47;;;4.30;99.90;;;;;;4975044;28;20668;-78
2022/12/11 00:25:12;;;;;;;33.40;19.23;;;4.30;99.90;;;;;;4975505;28;20665;-78
2022/12/11 00:27:38;;;;;;;42.07;23.80;;;4.30;99.90;;;;;;4992823;28;21214;-78
2022/12/11 00:30:04;;;;;;;36.22;19.20;;;4.30;99.90;;;;;;4975550;28;20206;-78
2022/12/11 00:32:30;;;;;;;35.90;20.35;;;4.30;99.90;;;;;;4992253;28;20639;-79
2022/12/11 00:34:57;;;;;;;32.13;19.80;;;4.30;99.90;;;;;;4975489;28;20198;-79
2022/12/11 00:37:22;;;;;;;33.47;18.67;;;4.40;99.90;;;;;;4992834;28;20589;-79
2022/12/11 00:39:48;;;;;;;40.67;23.03;;;4.40;99.90;;;;;;4975338;28;20565;-78
2022/12/11 00:42:14;;;;;;;36.97;21.43;;;4.40;99.90;;;;;;4974243;28;20590;-78
2022/12/11 00:44:41;;;;;;;43.43;21.80;;;4.40;99.90;;;;;;4975281;28;20285;-78
2022/12/11 00:47:07;;;;;;;38.97;21.50;;;4.40;99.90;;;;;;4992721;28;20167;-79
2022/12/11 00:49:33;;;;;;;39.55;22.00;;;4.40;99.90;;;;;;4992814;28;20283;-79
2022/12/11 00:51:58;;;;;;;39.00;21.20;;;4.40;99.90;;;;;;4979432;28;20167;-78
2022/12/11 00:54:24;;;;;;;41.33;22.30;;;4.40;99.90;;;;;;4959206;28;20638;-78
2022/12/11 00:56:50;;;;;;;36.40;21.77;;;4.40;99.90;;;;;;4974835;28;20178;-78
2022/12/11 00:59:16;;;;;;;33.83;19.60;;;4.40;99.90;;;;;;4975445;28;20175;-78
2022/12/11 01:01:44;;;;;;;36.93;20.63;;;4.40;99.90;;;;;;4974721;28;20182;-79
2022/12/11 01:04:09;;;;;;;41.65;21.55;;;4.40;99.90;;;;;;4974864;28;20250;-78
2022/12/11 01:06:35;;;;;;;32.67;19.70;;;4.40;99.90;;;;;;4975071;28;20175;-78
2022/12/11 01:11:45;;;;;;;41.05;22.80;;;4.40;99.90;;;;;;4973886;28;20504;-78
2022/12/11 01:14:11;;;;;;;42.00;23.03;;;4.40;99.90;;;;;;4974527;28;20701;-77
2022/12/11 01:16:37;;;;;;;41.43;22.40;;;4.40;99.90;;;;;;4958713;28;20246;-77
2022/12/11 01:19:03;;;;;;;39.27;23.40;;;4.40;99.90;;;;;;4992180;28;20578;-78
2022/12/11 01:21:29;;;;;;;41.53;22.33;;;4.40;99.90;;;;;;4957862;28;20186;-78
2022/12/11 01:23:55;;;;;;;40.80;23.42;;;4.40;99.90;;;;;;4974892;28;20198;-78
2022/12/11 01:26:22;;;;;;;34.37;21.17;;;4.30;99.90;;;;;;4992219;28;20258;-78
2022/12/11 01:28:49;;;;;;;30.85;19.02;;;4.30;99.90;;;;;;4979108;28;20672;-79
2022/12/11 01:31:16;;;;;;;40.95;22.85;;;4.30;99.90;;;;;;4958207;28;20227;-78
2022/12/11 01:33:42;;;;;;;32.92;20.00;;;4.30;99.90;;;;;;4974382;28;20197;-79
2022/12/11 01:36:11;;;;;;;31.67;19.70;;;4.30;99.90;;;;;;4974496;28;20167;-78
2022/12/11 01:38:36;;;;;;;34.92;20.67;;;4.30;99.90;;;;;;4958509;28;20213;-78
2022/12/11 01:41:02;;;;;;;33.40;18.70;;;4.30;99.90;;;;;;4973658;28;20210;-78
2022/12/11 01:43:28;;;;;;;32.33;17.30;;;4.30;99.90;;;;;;4974164;28;20677;-78
2022/12/11 01:45:54;;;;;;;31.40;19.27;;;4.30;99.90;;;;;;4958047;28;20586;-78
2022/12/11 01:48:27;;;;;;;37.57;20.27;;;4.30;99.90;;;;;;4990512;28;20718;-78
2022/12/11 01:50:57;;;;;;;32.45;18.92;;;4.30;99.90;;;;;;4973781;28;20677;-78
2022/12/11 01:53:31;;;;;;;35.60;19.40;;;4.30;99.90;;;;;;4991262;28;20190;-78
2022/12/11 01:56:00;;;;;;;26.67;17.45;;;4.20;99.90;;;;;;4991176;28;20186;-78
2022/12/11 01:58:32;;;;;;;30.52;18.55;;;4.20;99.90;;;;;;4974073;28;20186;-78
2022/12/11 02:01:01;;;;;;;32.00;18.35;;;4.20;99.90;;;;;;4957454;28;20175;-78
2022/12/11 02:03:27;;;;;;;32.70;17.95;;;4.20;99.90;;;;;;4973919;28;20206;-78
2022/12/11 02:06:02;;;;;;;33.20;19.23;;;4.20;99.90;;;;;;4979628;28;20249;-78
2022/12/11 02:08:28;;;;;;;27.30;18.10;;;4.20;99.90;;;;;;4974005;28;20202;-78
2022/12/11 02:11:00;;;;;;;28.60;17.92;;;4.20;99.90;;;;;;4972954;28;20594;-78
2022/12/11 02:13:33;;;;;;;32.58;17.73;;;4.20;99.90;;;;;;4957259;28;20214;-78
2022/12/11 02:16:03;;;;;;;30.85;18.05;;;4.20;99.90;;;;;;4973867;28;20171;-78
2022/12/11 02:18:47;;;;;;;29.17;18.35;;;4.20;99.90;;;;;;4957310;28;20269;-78
2022/12/11 02:21:49;;;;;;;32.30;20.05;;;4.20;99.90;;;;;;4972975;28;20219;-79
2022/12/11 02:24:43;;;;;;;31.90;17.50;;;4.20;99.90;;;;;;4925474;28;20234;-79
2022/12/11 02:27:40;;;;;;;36.35;20.77;;;4.20;99.90;;;;;;4973344;28;20237;-78
2022/12/11 02:30:08;;;;;;;34.15;19.90;;;4.20;99.90;;;;;;4989811;28;20175;-79
2022/12/11 02:32:42;;;;;;;37.45;19.45;;;4.20;99.90;;;;;;4990136;28;20238;-78
2022/12/11 02:35:23;;;;;;;37.63;20.10;;;4.20;99.90;;;;;;4973527;28;20281;-78
2022/12/11 02:37:58;;;;;;;33.78;19.08;;;4.20;99.90;;;;;;4990584;28;20234;-79
2022/12/11 02:40:29;;;;;;;36.50;21.08;;;4.20;99.90;;;;;;4990927;28;20162;-79
2022/12/11 02:42:58;;;;;;;35.95;19.25;;;4.20;99.90;;;;;;4976806;28;20171;-79
2022/12/11 02:45:26;;;;;;;33.95;17.83;;;4.20;99.90;;;;;;4973211;28;20647;-78
2022/12/11 02:47:52;;;;;;;34.45;19.83;;;4.20;99.90;;;;;;4972911;28;20599;-78
2022/12/11 02:50:20;;;;;;;29.17;16.57;;;4.20;99.90;;;;;;4973121;28;20234;-78
2022/12/11 02:52:50;;;;;;;29.80;16.95;;;4.20;99.90;;;;;;4972293;28;20590;-78
2022/12/11 02:55:17;;;;;;;31.83;18.05;;;4.20;99.90;;;;;;4972778;28;20215;-78
2022/12/11 02:57:51;;;;;;;32.78;18.10;;;4.20;99.90;;;;;;4973047;28;20179;-78
2022/12/11 03:00:18;;;;;;;27.92;15.98;;;4.30;99.90;;;;;;4990335;28;20170;-78
2022/12/11 03:02:44;;;;;;;32.55;18.52;;;4.30;99.90;;;;;;4972285;28;20179;-78
2022/12/11 03:05:12;;;;;;;32.35;17.55;;;4.30;99.90;;;;;;4990249;28;20206;-78
2022/12/11 03:07:39;;;;;;;32.15;17.92;;;4.30;99.90;;;;;;4972624;28;20171;-78
2022/12/11 03:10:08;;;;;;;28.13;15.50;;;4.30;99.90;;;;;;4972528;28;20174;-78
2022/12/11 03:12:39;;;;;;;30.50;17.95;;;4.30;99.90;;;;;;4972062;28;20683;-78
2022/12/11 03:15:08;;;;;;;28.17;15.20;;;4.40;99.90;;;;;;4972214;28;20779;-78
2022/12/11 03:17:58;;;;;;;27.60;16.65;;;4.30;99.90;;;;;;4990216;28;20184;-78
2022/12/11 03:20:46;;;;;;;24.35;14.43;;;4.40;99.90;;;;;;4960230;28;20179;-77
2022/12/11 03:23:32;;;;;;;28.63;16.30;;;4.40;99.90;;;;;;4972500;28;20167;-78
2022/12/11 03:26:03;;;;;;;29.83;16.23;;;4.40;99.90;;;;;;4972370;28;20182;-78
2022/12/11 03:28:39;;;;;;;27.15;15.80;;;4.40;99.90;;;;;;4972729;28;20210;-78
2022/12/11 03:31:09;;;;;;;27.10;16.00;;;4.40;99.90;;;;;;4971372;28;20174;-78
2022/12/11 03:33:42;;;;;;;29.20;16.30;;;4.40;99.90;;;;;;4972567;28;20226;-78
2022/12/11 03:36:16;;;;;;;28.67;16.10;;;4.40;99.90;;;;;;4956147;28;20217;-78
2022/12/11 03:38:53;;;;;;;22.83;15.30;;;4.40;99.90;;;;;;4972622;28;20682;-78
2022/12/11 03:41:22;;;;;;;26.92;14.02;;;4.40;99.90;;;;;;4971672;28;20391;-78
2022/12/11 03:43:51;;;;;;;30.10;16.23;;;4.40;99.90;;;;;;4972396;28;20191;-78
2022/12/11 03:46:19;;;;;;;26.38;14.43;;;4.40;99.90;;;;;;4972459;28;20233;-78
2022/12/11 03:48:48;;;;;;;25.55;14.27;;;4.40;99.90;;;;;;4989683;28;20198;-78
2022/12/11 03:51:15;;;;;;;28.35;15.15;;;4.40;99.90;;;;;;4939844;28;20265;-78
2022/12/11 03:53:42;;;;;;;28.17;15.95;;;4.40;99.90;;;;;;4972239;28;20195;-78
2022/12/11 03:56:10;;;;;;;22.15;13.05;;;4.40;99.90;;;;;;4972705;28;20175;-79
2022/12/11 03:58:36;;;;;;;24.13;14.52;;;4.40;99.90;;;;;;4977156;28;20557;-78
2022/12/11 04:01:02;;;;;;;27.13;15.83;;;4.40;99.90;;;;;;4972094;28;20187;-78
2022/12/11 04:03:27;;;;;;;26.17;15.37;;;4.40;99.90;;;;;;4939407;28;20610;-78
2022/12/11 04:05:54;;;;;;;24.40;15.73;;;4.40;99.90;;;;;;4980336;28;20186;-78
2022/12/11 04:08:21;;;;;;;22.95;14.88;;;4.40;99.90;;;;;;4991316;28;20208;-78
2022/12/11 04:11:33;;;;;;;24.63;14.25;;;4.40;99.90;;;;;;4991380;28;20178;-78
2022/12/11 04:13:34;;;;;;;23.63;13.70;;;4.40;99.90;;;;;;4991354;28;20296;-78
2022/12/11 04:16:00;;;;;;;26.75;15.45;;;4.40;99.90;;;;;;5019288;23;20591;-76
2022/12/11 04:24:14;;;;;;;20.42;12.75;;;4.40;99.90;;;;;;4991848;28;20166;-76
2022/12/11 04:26:40;;;;;;;19.17;11.43;;;4.50;99.90;;;;;;5010258;28;20832;-76
2022/12/11 04:29:06;;;;;;;18.25;11.57;;;4.50;99.90;;;;;;5011646;28;20202;-78
2022/12/11 04:31:32;;;;;;;19.47;13.27;;;4.50;99.90;;;;;;5031544;28;20177;-76
2022/12/11 04:34:00;;;;;;;18.47;12.00;;;4.50;99.90;;;;;;5030005;28;20576;-78
2022/12/11 04:36:26;;;;;;;20.85;11.30;;;4.50;99.90;;;;;;5000193;28;20637;-78
2022/12/11 04:38:52;;;;;;;17.80;10.83;;;4.50;99.90;;;;;;5035746;28;20185;-78
2022/12/11 04:41:18;;;;;;;16.00;10.30;;;4.50;99.90;;;;;;5035908;28;20350;-78
2022/12/11 04:43:46;;;;;;;17.20;11.67;;;4.50;99.90;;;;;;5019703;28;20185;-78
2022/12/11 04:46:14;;;;;;;18.17;11.60;;;4.50;99.90;;;;;;5022256;28;20197;-78
2022/12/11 04:48:40;;;;;;;17.15;11.23;;;4.50;99.90;;;;;;5039680;28;20213;-78
2022/12/11 04:51:07;;;;;;;18.33;11.00;;;4.50;99.90;;;;;;5021785;28;20185;-79
2022/12/11 04:53:34;;;;;;;16.38;11.10;;;4.50;99.90;;;;;;5039583;28;20178;-78
2022/12/11 04:56:00;;;;;;;15.27;10.43;;;4.50;99.90;;;;;;5021072;28;20190;-79
2022/12/11 04:58:26;;;;;;;13.63;9.20;;;4.60;99.90;;;;;;5021840;28;20174;-78
2022/12/11 05:00:52;;;;;;;13.63;9.97;;;4.60;99.90;;;;;;5021978;28;20954;-78
2022/12/11 05:03:18;;;;;;;15.73;9.57;;;4.60;99.90;;;;;;5040893;28;20596;-78
2022/12/11 05:05:49;;;;;;;15.30;10.13;;;4.60;99.90;;;;;;5023595;28;20284;-78
2022/12/11 05:08:16;;;;;;;16.45;10.80;;;4.60;99.90;;;;;;5043006;28;20293;-78
2022/12/11 05:10:42;;;;;;;13.98;10.25;;;4.60;99.90;;;;;;5025049;28;20192;-78
2022/12/11 05:13:08;;;;;;;15.70;9.70;;;4.60;99.90;;;;;;5024011;28;20638;-78
2022/12/11 05:15:33;;;;;;;15.90;10.20;;;4.60;99.90;;;;;;5011517;28;20703;-78
2022/12/11 05:17:59;;;;;;;13.40;9.47;;;4.60;99.90;;;;;;5004032;28;20170;-79
2022/12/11 05:20:25;;;;;;;16.07;9.53;;;4.60;99.90;;;;;;5020498;28;20198;-79
2022/12/11 05:22:50;;;;;;;15.83;11.27;;;4.60;99.90;;;;;;5000648;28;20181;-79
2022/12/11 05:25:16;;;;;;;18.83;12.10;;;4.60;99.90;;;;;;5001197;28;20693;-79
2022/12/11 05:27:42;;;;;;;13.73;9.50;;;4.60;99.90;;;;;;5000023;28;20785;-79
2022/12/11 05:30:09;;;;;;;15.70;10.87;;;4.60;99.90;;;;;;5000265;28;20177;-79
2022/12/11 05:32:34;;;;;;;14.80;10.10;;;4.60;99.90;;;;;;4981226;28;20225;-78
2022/12/11 05:35:00;;;;;;;14.47;10.87;;;4.60;99.90;;;;;;4998322;28;20716;-78
2022/12/11 05:37:26;;;;;;;14.02;10.55;;;4.50;99.90;;;;;;5014095;28;20676;-78
2022/12/11 05:39:52;;;;;;;14.93;10.70;;;4.50;99.90;;;;;;5015510;28;20206;-78
2022/12/11 05:42:18;;;;;;;18.20;10.27;;;4.50;99.90;;;;;;5015090;28;20202;-78
2022/12/11 05:44:43;;;;;;;16.93;11.80;;;4.50;99.90;;;;;;4979378;28;20535;-78
2022/12/11 05:47:09;;;;;;;16.00;10.37;;;4.50;99.90;;;;;;4996337;28;20729;-78
2022/12/11 05:49:35;;;;;;;17.00;9.75;;;4.40;99.90;;;;;;4996065;28;20256;-78
2022/12/11 05:52:01;;;;;;;14.30;10.40;;;4.40;99.90;;;;;;5013164;28;20171;-78
2022/12/11 05:54:27;;;;;;;16.77;11.40;;;4.40;99.90;;;;;;5013421;28;20181;-79
2022/12/11 05:56:52;;;;;;;19.70;12.00;;;4.40;99.90;;;;;;5014388;28;21236;-78
2022/12/11 05:59:18;;;;;;;16.27;10.87;;;4.40;99.90;;;;;;4997106;28;20178;-78
2022/12/11 06:01:44;;;;;;;15.97;11.30;;;4.40;99.90;;;;;;5011635;28;20678;-78
2022/12/11 06:04:11;;;;;;;14.27;10.07;;;4.40;99.90;;;;;;5013859;28;20581;-79
2022/12/11 06:06:37;;;;;;;15.02;10.10;;;4.40;99.90;;;;;;5014313;28;20198;-79
2022/12/11 06:09:04;;;;;;;18.23;10.83;;;4.40;99.90;;;;;;4997272;28;20202;-79
2022/12/11 06:11:31;;;;;;;16.38;10.85;;;4.40;99.90;;;;;;5000385;28;20572;-78
2022/12/11 06:13:57;;;;;;;16.25;11.02;;;4.40;99.90;;;;;;5013826;28;20162;-78
2022/12/11 06:16:23;;;;;;;17.58;11.90;;;4.40;99.90;;;;;;4996510;28;20233;-78
2022/12/11 06:18:49;;;;;;;17.30;10.55;;;4.40;99.90;;;;;;4980592;28;20189;-78
2022/12/11 06:21:19;;;;;;;16.10;10.63;;;4.40;99.90;;;;;;4996924;28;20174;-78
2022/12/11 06:23:46;;;;;;;18.27;10.75;;;4.40;99.90;;;;;;5014263;28;20585;-78
2022/12/11 06:26:14;;;;;;;17.70;10.60;;;4.40;99.90;;;;;;5014396;28;20194;-78
2022/12/11 06:28:39;;;;;;;14.98;9.82;;;4.40;99.90;;;;;;4980104;28;20241;-78
2022/12/11 06:31:05;;;;;;;13.77;10.27;;;4.30;99.90;;;;;;4994100;28;20213;-80
2022/12/11 06:33:32;;;;;;;17.43;10.27;;;4.30;99.90;;;;;;4995111;28;20229;-78
2022/12/11 06:36:10;;;;;;;16.27;10.55;;;4.30;99.90;;;;;;4996153;28;21180;-77
2022/12/11 06:38:36;;;;;;;18.77;10.80;;;4.20;99.90;;;;;;5014465;28;20177;-79
2022/12/11 06:41:06;;;;;;;18.92;10.98;;;4.20;99.90;;;;;;4997853;28;20242;-79
2022/12/11 06:43:33;;;;;;;16.33;10.50;;;4.20;99.90;;;;;;4997722;28;20224;-79
2022/12/11 06:46:02;;;;;;;16.52;10.18;;;4.20;99.90;;;;;;4996039;28;20292;-79
2022/12/11 06:48:27;;;;;;;18.73;9.73;;;4.20;99.90;;;;;;4983701;28;20206;-78
2022/12/11 06:50:53;;;;;;;16.57;10.73;;;4.20;99.90;;;;;;4995836;28;20812;-78
2022/12/11 06:53:19;;;;;;;15.03;10.17;;;4.20;99.90;;;;;;4979837;28;20244;-78
2022/12/11 06:55:44;;;;;;;15.77;10.90;;;4.20;99.90;;;;;;5013170;28;21152;-78
2022/12/11 06:58:10;;;;;;;18.83;10.67;;;4.20;99.90;;;;;;5000438;28;20571;-78
2022/12/11 07:00:37;;;;;;;19.13;11.67;;;4.30;99.90;;;;;;5023259;28;20212;-78
2022/12/11 07:03:04;;;;;;;17.30;11.68;;;4.30;99.90;;;;;;5012183;28;20603;-78
2022/12/11 07:05:31;;;;;;;16.85;10.38;;;4.30;99.90;;;;;;5018035;28;20229;-78
2022/12/11 07:07:57;;;;;;;18.38;11.75;;;4.30;99.90;;;;;;5018092;28;20182;-78
2022/12/11 07:10:23;;;;;;;18.33;10.90;;;4.20;99.90;;;;;;5004316;28;20166;-78
2022/12/11 07:12:52;;;;;;;19.95;12.35;;;4.20;99.90;;;;;;5038172;28;20165;-78
2022/12/11 07:15:17;;;;;;;17.92;11.35;;;4.20;99.90;;;;;;5022267;28;20221;-78
2022/12/11 07:17:43;;;;;;;18.33;10.67;;;4.20;99.90;;;;;;5020148;28;20178;-78
2022/12/11 07:20:09;;;;;;;19.13;11.23;;;4.20;99.90;;;;;;5020146;28;20798;-78
2022/12/11 07:22:35;;;;;;;16.17;11.38;;;4.20;99.90;;;;;;5035349;28;20196;-78
2022/12/11 07:25:01;;;;;;;15.90;10.73;;;4.20;99.90;;;;;;5013111;28;20189;-78
2022/12/11 07:27:27;;;;;;;21.00;13.07;;;4.20;99.90;;;;;;4985508;28;20587;-79
2022/12/11 07:29:54;;;;;;;15.15;10.68;;;4.20;99.90;;;;;;5012270;28;20212;-78
2022/12/11 07:32:20;;;;;;;19.90;11.95;;;4.20;99.90;;;;;;5031584;28;20174;-79
2022/12/11 07:34:47;;;;;;;14.60;10.43;;;4.20;99.90;;;;;;5014906;28;20197;-79
2022/12/11 07:37:13;;;;;;;17.80;11.88;;;4.30;99.90;;;;;;4998087;28;20585;-77
2022/12/11 07:39:39;;;;;;;19.30;12.17;;;4.30;99.90;;;;;;5000935;28;20205;-78
2022/12/11 07:42:04;;;;;;;13.53;9.20;;;4.30;99.90;;;;;;5011762;28;20177;-78
2022/12/11 07:44:30;;;;;;;16.43;10.43;;;4.30;99.90;;;;;;5013452;28;20174;-78
2022/12/11 07:46:56;;;;;;;18.10;11.38;;;4.30;99.90;;;;;;5016557;28;20174;-79
2022/12/11 07:49:22;;;;;;;16.57;11.30;;;4.30;99.90;;;;;;5019799;28;20198;-78
2022/12/11 07:51:47;;;;;;;14.17;10.30;;;4.30;99.90;;;;;;5018300;28;20666;-77
2022/12/11 07:54:15;;;;;;;11.90;8.50;;;4.30;99.90;;;;;;5015259;28;20261;-77
2022/12/11 07:56:42;;;;;;;15.55;10.07;;;4.30;99.90;;;;;;5006607;28;20186;-78
2022/12/11 07:59:08;;;;;;;15.20;10.23;;;4.30;99.90;;;;;;5022633;28;20171;-78
2022/12/11 08:01:35;;;;;;;13.07;9.87;;;4.40;99.90;;;;;;4989050;28;20171;-78
2022/12/11 08:04:06;;;;;;;14.98;9.15;;;4.40;99.90;;;;;;5000976;28;20166;-78
2022/12/11 08:06:34;;;;;;;16.88;9.98;;;4.30;99.90;;;;;;5001231;28;20198;-78
2022/12/11 08:09:02;;;;;;;17.45;11.10;;;4.40;99.90;;;;;;5000673;28;20618;-79
2022/12/11 08:11:29;;;;;;;14.93;9.23;;;4.40;99.90;;;;;;5017146;28;20186;-79
2022/12/11 08:13:55;;;;;;;15.75;9.70;;;4.40;99.90;;;;;;5001881;28;20298;-78
2022/12/11 08:16:21;;;;;;;15.45;9.70;;;4.40;99.90;;;;;;4981078;28;20213;-78
2022/12/11 08:18:47;;;;;;;18.58;10.40;;;4.40;99.90;;;;;;5017808;28;20244;-79
2022/12/11 08:21:16;;;;;;;16.60;11.05;;;4.50;99.90;;;;;;5001341;28;20171;-80
2022/12/11 08:23:42;;;;;;;15.65;10.43;;;4.50;99.90;;;;;;5023305;28;20174;-78
2022/12/11 08:26:12;;;;;;;20.42;11.65;;;4.50;99.90;;;;;;4982946;28;20198;-77
2022/12/11 08:28:38;;;;;;;17.25;10.70;;;4.50;99.90;;;;;;5016878;28;20233;-79
2022/12/11 08:31:06;;;;;;;18.60;12.30;;;4.60;99.90;;;;;;5015238;28;20178;-78
2022/12/11 08:33:33;;;;;;;19.70;13.45;;;4.60;99.90;;;;;;4983097;28;20562;-78
2022/12/11 08:36:02;;;;;;;17.08;10.75;;;4.60;99.90;;;;;;4996817;28;20194;-80
2022/12/11 08:38:28;;;;;;;16.30;11.40;;;4.60;99.90;;;;;;5016512;28;20233;-78
2022/12/11 08:40:54;;;;;;;18.87;11.13;;;4.60;99.90;;;;;;5018027;28;20557;-79
2022/12/11 08:43:19;;;;;;;18.23;10.93;;;4.60;99.90;;;;;;4998315;28;20589;-78
2022/12/11 08:45:45;;;;;;;17.30;11.00;;;4.60;99.90;;;;;;5018486;28;20577;-78
2022/12/11 08:48:11;;;;;;;15.80;10.35;;;4.60;99.90;;;;;;5017112;28;20197;-78
2022/12/11 08:50:37;;;;;;;16.20;10.97;;;4.60;99.90;;;;;;4998156;28;20174;-78
2022/12/11 08:53:03;;;;;;;16.47;10.83;;;4.60;99.90;;;;;;4997573;28;20917;-77
2022/12/11 08:55:28;;;;;;;16.43;11.27;;;4.70;99.90;;;;;;4999952;28;20830;-78
2022/12/11 08:57:54;;;;;;;16.73;9.70;;;4.70;99.90;;;;;;4998028;28;20605;-77
2022/12/11 09:00:20;;;;;;;17.20;10.80;;;4.70;99.90;;;;;;5014482;28;20169;-77
2022/12/11 09:02:46;;;;;;;19.40;11.73;;;4.70;99.90;;;;;;4995589;28;20678;-78
2022/12/11 09:05:12;;;;;;;15.88;10.63;;;4.70;99.90;;;;;;5016012;28;20185;-78
2022/12/11 09:07:38;;;;;;;17.77;10.87;;;4.70;99.90;;;;;;5034883;28;21136;-78
2022/12/11 09:10:06;;;;;;;15.57;10.27;;;4.70;99.90;;;;;;5001631;28;20660;-78
2022/12/11 09:12:33;;;;;;;18.05;11.48;;;4.80;99.90;;;;;;5016117;28;21193;-77
2022/12/11 09:14:59;;;;;;;16.00;11.10;;;4.80;99.90;;;;;;5033818;28;20193;-77
2022/12/11 09:17:26;;;;;;;21.48;11.70;;;4.80;99.90;;;;;;5004933;28;20232;-77
2022/12/11 09:19:52;;;;;;;20.07;11.43;;;4.80;99.90;;;;;;5015566;28;20182;-78
2022/12/11 09:22:18;;;;;;;19.03;12.03;;;4.80;99.90;;;;;;4988050;28;20218;-77
2022/12/11 09:24:45;;;;;;;18.10;12.17;;;4.90;99.90;;;;;;4996857;28;20194;-77
2022/12/11 09:27:10;;;;;;;18.05;11.27;;;4.90;99.90;;;;;;4988348;28;20185;-78
2022/12/11 09:29:37;;;;;;;22.00;11.93;;;4.90;99.90;;;;;;5027229;28;20249;-78
2022/12/11 09:32:03;;;;;;;17.35;11.65;;;4.90;99.90;;;;;;5015868;28;20245;-78
2022/12/11 09:34:29;;;;;;;16.60;11.80;;;4.90;99.90;;;;;;5015271;28;20260;-77
2022/12/11 09:36:54;;;;;;;19.93;12.70;;;4.90;99.90;;;;;;5032244;28;20576;-77
2022/12/11 09:39:20;;;;;;;16.40;10.53;;;4.90;99.90;;;;;;5014335;28;20166;-77
2022/12/11 09:42:21;;;;;;;14.00;10.23;;;4.90;99.90;;;;;;5014555;28;20217;-77
2022/12/11 09:44:51;;;;;;;14.95;10.57;;;4.90;99.90;;;;;;4985587;28;20206;-78
2022/12/11 09:47:20;;;;;;;17.30;10.73;;;4.90;99.90;;;;;;4977499;28;20651;-77
2022/12/11 09:49:49;;;;;;;20.00;11.52;;;4.90;99.90;;;;;;4984708;28;20217;-77
2022/12/11 09:52:22;;;;;;;20.48;11.82;;;4.90;99.90;;;;;;4995627;28;20179;-77
2022/12/11 09:54:53;;;;;;;14.82;10.60;;;5.00;99.90;;;;;;5012171;28;20750;-78
2022/12/11 09:57:27;;;;;;;18.83;12.50;;;4.90;99.90;;;;;;4977250;28;20201;-78
2022/12/11 10:00:23;;;;;;;18.20;11.85;;;5.00;99.90;;;;;;4976819;28;20193;-77
2022/12/11 10:02:57;;;;;;;17.23;11.45;;;5.00;99.90;;;;;;4975583;28;20266;-78
2022/12/11 10:05:29;;;;;;;33.28;11.18;;;5.00;99.90;;;;;;4991934;28;20198;-77
2022/12/11 10:08:16;;;;;;;21.25;12.35;;;5.10;99.90;;;;;;4993025;28;20262;-77
2022/12/11 10:10:42;;;;;;;18.25;12.63;;;5.10;99.90;;;;;;4992971;28;20167;-77
2022/12/11 10:13:29;;;;;;;17.73;12.83;;;5.10;99.90;;;;;;4992733;28;20178;-77
2022/12/11 10:16:00;;;;;;;17.70;11.07;;;5.10;99.90;;;;;;4992021;28;20202;-78
2022/12/11 10:18:30;;;;;;;21.23;12.63;;;5.10;99.90;;;;;;4993484;28;20190;-76
2022/12/11 10:20:59;;;;;;;21.92;13.30;;;5.10;99.90;;;;;;4977793;28;20735;-76
2022/12/11 10:23:35;;;;;;;14.65;10.35;;;5.20;99.90;;;;;;4976922;28;20270;-76
2022/12/11 10:26:17;;;;;;;18.25;12.38;;;5.20;99.90;;;;;;5012907;28;20205;-76
2022/12/11 10:32:48;;;;;;;16.08;11.02;;;5.20;99.90;;;;;;5015255;28;20181;-75
2022/12/11 10:35:39;;;;;;;16.65;11.57;;;5.30;99.90;;;;;;4960731;28;20202;-75
2022/12/11 10:38:39;;;;;;;20.25;12.75;;;5.30;99.90;;;;;;5009053;28;20186;-76
2022/12/11 10:41:11;;;;;;;17.60;11.45;;;5.30;99.90;;;;;;4995649;28;20226;-74
2022/12/11 10:43:41;;;;;;;19.25;11.30;;;5.30;99.90;;;;;;5010419;28;20175;-74
2022/12/11 10:46:16;;;;;;;20.83;13.05;;;5.40;99.90;;;;;;4992808;28;20202;-75
2022/12/11 10:48:59;;;;;;;20.95;12.15;;;5.40;99.90;;;;;;4992177;28;20189;-74
2022/12/11 10:51:34;;;;;;;20.02;13.88;;;5.40;99.90;;;;;;4992599;28;20170;-74
2022/12/11 10:54:07;;;;;;;20.65;12.80;;;5.40;99.90;;;;;;5008942;28;20174;-74
2022/12/11 10:56:36;;;;;;;24.23;16.55;;;5.40;99.90;;;;;;4992633;28;20197;-75
2022/12/11 10:59:02;;;;;;;27.88;16.23;;;5.40;99.90;;;;;;4975818;28;20634;-75
2022/12/11 11:01:31;;;;;;;24.57;16.00;;;5.30;99.90;;;;;;5008900;28;20174;-75
2022/12/11 11:04:02;;;;;;;24.83;15.60;;;5.20;99.90;;;;;;4996960;28;20964;-76
2022/12/11 11:06:28;;;;;;;25.27;16.15;;;5.10;99.90;;;;;;5014068;28;20209;-76
2022/12/11 11:08:57;;;;;;;27.45;16.30;;;5.10;99.90;;;;;;4995011;28;20206;-77
2022/12/11 11:11:31;;;;;;;29.77;16.00;;;5.10;99.90;;;;;;5013319;28;20189;-77
2022/12/11 11:14:07;;;;;;;29.30;16.40;;;5.00;99.90;;;;;;5014216;28;20190;-77
2022/12/11 11:16:36;;;;;;;30.40;15.85;;;5.00;99.90;;;;;;5013629;28;20209;-77
2022/12/11 11:19:03;;;;;;;33.15;16.67;;;5.00;99.90;;;;;;5016333;28;20257;-77
2022/12/11 11:21:30;;;;;;;26.55;16.58;;;5.10;99.90;;;;;;4995987;28;20229;-77
2022/12/11 11:23:56;;;;;;;28.85;17.25;;;5.10;99.90;;;;;;4994568;28;20178;-77
2022/12/11 11:26:23;;;;;;;31.08;17.60;;;5.10;99.90;;;;;;4997416;28;20212;-77
2022/12/11 11:28:56;;;;;;;35.03;20.50;;;5.20;99.90;;;;;;5000274;28;20206;-76
2022/12/11 11:31:31;;;;;;;32.95;18.55;;;5.20;99.90;;;;;;5007560;28;20238;-76
2022/12/11 11:34:04;;;;;;;29.40;17.52;;;5.30;99.90;;;;;;5038983;28;20224;-77
2022/12/11 11:36:32;;;;;;;38.83;22.23;;;5.30;99.90;;;;;;5034020;28;20198;-76
2022/12/11 11:39:17;;;;;;;35.97;20.15;;;5.30;99.90;;;;;;5020787;28;20174;-77
2022/12/11 11:41:52;;;;;;;30.83;19.58;;;5.20;99.90;;;;;;5036306;28;20174;-76
2022/12/11 11:44:33;;;;;;;33.03;19.08;;;5.10;99.90;;;;;;5013082;28;20174;-75
2022/12/11 11:47:09;;;;;;;37.95;23.45;;;5.10;99.90;;;;;;5018173;28;20625;-76
2022/12/11 11:49:51;;;;;;;32.90;20.45;;;5.10;99.90;;;;;;5034902;28;20194;-76
2022/12/11 11:52:26;;;;;;;33.00;18.38;;;5.10;99.90;;;;;;5029190;28;20170;-77
2022/12/11 11:54:59;;;;;;;35.17;18.77;;;5.00;99.90;;;;;;5002594;28;20194;-77
2022/12/11 11:57:37;;;;;;;36.03;19.45;;;5.10;99.90;;;;;;5021198;28;20265;-76
2022/12/11 12:00:25;;;;;;;33.70;18.70;;;5.10;99.90;;;;;;5036615;28;20649;-76
2022/12/11 12:02:58;;;;;;;33.25;20.80;;;5.10;99.90;;;;;;5034576;28;20181;-77
2022/12/11 12:05:52;;;;;;;29.83;20.25;;;5.10;99.90;;;;;;5015675;28;20194;-78
2022/12/11 12:08:30;;;;;;;31.10;17.25;;;5.10;99.90;;;;;;5034577;28;20299;-76
2022/12/11 12:11:27;;;;;;;27.20;17.90;;;5.10;99.90;;;;;;5036205;28;20161;-76
2022/12/11 12:14:05;;;;;;;24.50;15.15;;;5.10;99.90;;;;;;5017520;28;20326;-76
2022/12/11 12:16:55;;;;;;;26.73;16.80;;;5.20;99.90;;;;;;5001154;28;20586;-76
2022/12/11 12:19:42;;;;;;;25.55;16.77;;;5.10;99.90;;;;;;5034051;28;20181;-75
2022/12/11 12:22:17;;;;;;;26.55;14.70;;;5.20;99.90;;;;;;5035684;28;20231;-76
2022/12/11 12:25:10;;;;;;;25.00;16.85;;;5.20;99.90;;;;;;5020740;28;20205;-77
2022/12/11 12:27:52;;;;;;;18.83;12.90;;;5.20;99.90;;;;;;5034737;28;20173;-76
2022/12/11 12:30:19;;;;;;;26.88;15.55;;;5.30;99.90;;;;;;4998654;28;20198;-76
2022/12/11 12:33:03;;;;;;;28.55;17.48;;;5.30;99.90;;;;;;4989230;28;20174;-78
2022/12/11 12:35:36;;;;;;;26.20;16.60;;;5.20;99.90;;;;;;5013668;28;20301;-76
2022/12/11 12:38:08;;;;;;;28.02;17.20;;;5.20;99.90;;;;;;5015870;28;20171;-76
2022/12/11 12:41:12;;;;;;;28.48;15.38;;;5.20;99.90;;;;;;5013194;28;20181;-77
2022/12/11 12:43:41;;;;;;;23.65;14.88;;;5.30;99.90;;;;;;5014743;28;20532;-76
2022/12/11 12:46:18;;;;;;;21.88;14.13;;;5.30;99.90;;;;;;5046265;28;20200;-76
2022/12/11 12:48:44;;;;;;;27.80;19.33;;;5.30;99.90;;;;;;5017892;28;20256;-76
2022/12/11 12:51:14;;;;;;;24.35;15.43;;;5.40;99.90;;;;;;5018635;28;20173;-77
2022/12/11 12:53:45;;;;;;;26.27;17.08;;;5.40;99.90;;;;;;5027417;28;20209;-76
2022/12/11 12:56:12;;;;;;;26.35;16.95;;;5.50;99.90;;;;;;5014748;28;20190;-76
2022/12/11 12:58:44;;;;;;;28.33;17.02;;;5.50;99.90;;;;;;4998497;28;20178;-77
2022/12/11 13:01:16;;;;;;;30.48;16.05;;;5.60;99.90;;;;;;4998654;28;20179;-77
2022/12/11 13:03:49;;;;;;;28.02;17.65;;;5.60;99.90;;;;;;5001197;28;20190;-77